createdAt,value
2017-06-15T03:32:04.249Z,4.53
2017-06-15T03:34:31.897Z,4.30
2017-06-15T03:36:59.572Z,5.30
2017-06-15T03:39:27.229Z,5.30
2017-06-15T03:41:54.905Z,5.17
2017-06-15T03:44:22.553Z,4.90
2017-06-15T03:46:50.522Z,4.70
2017-06-15T03:49:18.181Z,4.80
2017-06-15T03:51:45.986Z,4.70
2017-06-15T03:54:14.431Z,5.03
2017-06-15T03:56:42.093Z,5.20
2017-06-15T03:59:09.892Z,4.73
2017-06-15T04:01:37.534Z,5.60
2017-06-15T04:04:05.189Z,4.87
2017-06-15T04:06:32.859Z,5.67
2017-06-15T04:09:01.684Z,5.50
2017-06-15T04:11:29.429Z,5.17
2017-06-15T04:13:57.083Z,5.20
2017-06-15T04:16:25.521Z,4.77
2017-06-15T04:18:53.260Z,5.07
2017-06-15T04:21:20.917Z,4.97
2017-06-15T04:23:48.568Z,5.50
2017-06-15T04:26:16.224Z,5.30
2017-06-15T04:28:43.870Z,5.23
2017-06-15T04:31:12.284Z,5.47
2017-06-15T04:33:40.111Z,6.17
2017-06-15T04:36:07.781Z,5.03
2017-06-15T04:38:36.278Z,4.90
2017-06-15T04:41:03.973Z,5.70
2017-06-15T04:43:31.637Z,5.27
2017-06-15T04:45:59.293Z,5.80
2017-06-15T04:48:27.332Z,5.97
2017-06-15T04:50:54.971Z,6.43
2017-06-15T04:53:23.395Z,6.30
2017-06-15T04:55:51.063Z,5.97
2017-06-15T04:58:18.710Z,6.73
2017-06-15T05:00:46.396Z,6.43
2017-06-15T05:03:14.050Z,6.47
2017-06-15T05:05:41.709Z,6.40
2017-06-15T05:08:09.361Z,5.50
2017-06-15T05:10:37.404Z,6.10
2017-06-15T05:13:05.829Z,5.80
2017-06-15T05:15:33.472Z,6.33
2017-06-15T05:18:01.512Z,5.97
2017-06-15T05:20:29.920Z,5.50
2017-06-15T05:22:57.579Z,7.20
2017-06-15T05:25:25.253Z,6.10
2017-06-15T05:27:52.902Z,5.63
2017-06-15T05:30:20.566Z,5.73
2017-06-15T05:32:48.263Z,5.40
2017-06-15T05:35:16.283Z,5.87
2017-06-15T05:37:43.917Z,5.80
2017-06-15T05:40:11.561Z,6.00
2017-06-15T05:42:39.578Z,5.93
2017-06-15T05:45:07.235Z,5.47
2017-06-15T05:47:34.879Z,6.37
2017-06-15T05:50:02.869Z,5.70
2017-06-15T05:52:30.486Z,5.37
2017-06-15T05:54:58.137Z,5.53
2017-06-15T05:57:26.143Z,5.00
2017-06-15T05:59:54.545Z,5.90
2017-06-15T06:02:22.185Z,5.60
2017-06-15T06:04:50.930Z,4.90
2017-06-15T06:07:18.579Z,5.27
2017-06-15T06:09:46.209Z,6.27
2017-06-15T06:12:14.968Z,5.67
2017-06-15T06:14:42.609Z,5.07
2017-06-15T06:17:10.263Z,5.17
2017-06-15T06:19:37.920Z,5.60
2017-06-15T06:22:05.570Z,4.87
2017-06-15T06:24:33.233Z,4.80
2017-06-15T06:27:00.899Z,4.57
2017-06-15T06:29:28.593Z,4.50
2017-06-15T06:31:56.252Z,5.50
2017-06-15T06:34:24.376Z,5.90
2017-06-15T06:36:52.033Z,4.93
2017-06-15T06:39:19.682Z,5.30
2017-06-15T06:41:47.372Z,4.53
2017-06-15T06:44:15.011Z,4.83
2017-06-15T06:46:42.701Z,5.53
2017-06-15T06:49:10.348Z,4.60
2017-06-15T06:51:38.023Z,4.77
2017-06-15T06:54:05.684Z,4.30
2017-06-15T06:56:33.731Z,4.53
2017-06-15T06:59:01.387Z,4.60
2017-06-15T07:01:29.119Z,4.53
2017-06-15T07:03:56.783Z,4.53
2017-06-15T07:06:24.435Z,3.93
2017-06-15T07:08:52.307Z,4.73
2017-06-15T07:11:19.948Z,5.27
2017-06-15T07:13:47.985Z,5.53
2017-06-15T07:16:15.637Z,5.07
2017-06-15T07:18:44.921Z,5.63
2017-06-15T07:21:13.341Z,4.77
2017-06-15T07:23:41.003Z,4.77
2017-06-15T07:26:08.698Z,5.47
2017-06-15T07:28:36.362Z,4.27
2017-06-15T07:31:04.029Z,5.70
2017-06-15T07:33:31.700Z,4.70
2017-06-15T07:35:59.695Z,3.80
2017-06-15T07:38:27.369Z,4.50
2017-06-15T07:40:55.014Z,4.67
2017-06-15T07:43:23.443Z,4.70
2017-06-15T07:45:51.097Z,4.47
2017-06-15T07:48:18.769Z,4.53
2017-06-15T07:50:46.416Z,4.53
2017-06-15T07:53:14.080Z,4.37
2017-06-15T07:55:41.739Z,4.30
2017-06-15T07:58:09.403Z,3.77
2017-06-15T08:00:37.067Z,3.90
2017-06-15T08:03:04.701Z,4.17
2017-06-15T08:05:32.387Z,3.80
2017-06-15T08:08:00.043Z,4.50
2017-06-15T08:10:27.723Z,5.30
2017-06-15T08:12:55.408Z,4.30
2017-06-15T08:15:23.530Z,3.93
2017-06-15T08:17:51.170Z,3.60
2017-06-15T08:20:19.595Z,3.10
2017-06-15T08:22:47.280Z,3.10
2017-06-15T08:25:15.221Z,3.17
2017-06-15T08:27:42.889Z,3.40
2017-06-15T08:30:10.921Z,2.93
2017-06-15T08:32:39.448Z,3.33
2017-06-15T08:35:07.095Z,3.23
2017-06-15T08:37:34.765Z,3.17
2017-06-15T08:40:02.573Z,2.67
2017-06-15T08:42:30.980Z,2.67
2017-06-15T08:44:58.674Z,2.67
2017-06-15T08:47:26.385Z,2.23
2017-06-15T08:49:54.068Z,3.47
2017-06-15T08:52:21.736Z,3.10
2017-06-15T08:54:51.941Z,3.30
2017-06-15T08:57:19.597Z,3.07
2017-06-15T08:59:48.438Z,3.43
2017-06-15T09:02:16.273Z,2.97
2017-06-15T09:04:43.934Z,2.60
2017-06-15T09:07:11.642Z,2.80
2017-06-15T09:09:39.302Z,2.70
2017-06-15T09:12:07.094Z,2.50
2017-06-15T09:14:35.532Z,3.10
2017-06-15T09:17:03.548Z,2.80
2017-06-15T09:19:31.974Z,3.13
2017-06-15T09:21:59.629Z,3.20
2017-06-15T09:24:27.297Z,2.50
2017-06-15T09:26:54.937Z,3.50
2017-06-15T09:29:22.602Z,2.80
2017-06-15T09:31:50.249Z,3.37
2017-06-15T09:34:18.791Z,3.30
2017-06-15T09:36:46.527Z,2.40
2017-06-15T09:39:14.201Z,3.03
2017-06-15T09:41:41.843Z,2.80
2017-06-15T09:44:09.891Z,3.03
2017-06-15T09:46:37.537Z,2.97
2017-06-15T09:49:05.344Z,2.57
2017-06-15T09:51:32.993Z,2.80
2017-06-15T09:54:03.303Z,3.27
2017-06-15T09:56:31.262Z,2.50
2017-06-15T09:58:58.922Z,2.90
2017-06-15T10:01:27.784Z,2.87
2017-06-15T10:03:55.484Z,2.67
2017-06-15T10:06:23.185Z,2.60
2017-06-15T10:08:50.863Z,2.73
2017-06-15T10:11:18.523Z,3.37
2017-06-15T10:13:46.196Z,2.80
2017-06-15T10:16:13.920Z,3.00
2017-06-15T10:18:41.571Z,3.40
2017-06-15T10:21:09.236Z,2.67
2017-06-15T10:23:37.287Z,2.90
2017-06-15T10:26:05.810Z,2.60
2017-06-15T10:28:33.469Z,3.07
2017-06-15T10:31:01.158Z,3.60
2017-06-15T10:33:28.810Z,3.50
2017-06-15T10:35:56.665Z,3.20
2017-06-15T10:38:24.390Z,3.00
2017-06-15T10:40:52.071Z,2.80
2017-06-15T10:43:19.717Z,3.00
2017-06-15T10:45:47.379Z,3.37
2017-06-15T10:48:15.068Z,3.13
2017-06-15T10:50:42.699Z,3.30
2017-06-15T10:53:10.546Z,3.03
2017-06-15T10:55:38.901Z,3.60
2017-06-15T10:58:06.571Z,3.57
2017-06-15T11:00:34.228Z,3.57
2017-06-15T11:03:02.217Z,4.30
2017-06-15T11:05:29.861Z,3.80
2017-06-15T11:07:57.523Z,4.33
2017-06-15T11:10:25.285Z,3.90
2017-06-15T11:12:53.091Z,3.97
2017-06-15T11:15:20.768Z,3.80
2017-06-15T11:17:48.439Z,3.50
2017-06-15T11:20:16.155Z,3.47
2017-06-15T11:22:43.870Z,4.07
2017-06-15T11:25:11.850Z,3.70
2017-06-15T11:27:39.496Z,3.50
2017-06-15T11:30:07.164Z,4.20
2017-06-15T11:32:34.924Z,3.40
2017-06-15T11:35:02.696Z,3.47
2017-06-15T11:37:30.414Z,3.70
2017-06-15T11:39:58.874Z,3.77
2017-06-15T11:42:27.655Z,3.80
2017-06-15T11:44:55.350Z,3.93
2017-06-15T11:47:23.768Z,3.87
2017-06-15T11:49:51.825Z,3.97
2017-06-15T11:52:19.492Z,4.10
2017-06-15T11:54:47.140Z,3.60
2017-06-15T11:57:15.100Z,4.40
2017-06-15T11:59:43.000Z,4.10
2017-06-15T12:02:31.957Z,4.40
2017-06-15T12:04:59.668Z,4.43
2017-06-15T12:07:27.339Z,4.00
2017-06-15T12:09:55.347Z,3.87
2017-06-15T12:12:23.025Z,3.60
2017-06-15T12:14:50.785Z,4.13
2017-06-15T12:17:18.821Z,3.60
2017-06-15T12:19:46.571Z,4.60
2017-06-15T12:22:14.995Z,4.93
2017-06-15T12:24:43.040Z,4.53
2017-06-15T12:27:10.705Z,4.20
2017-06-15T12:29:38.371Z,4.43
2017-06-15T12:32:06.437Z,4.50
2017-06-15T12:34:34.094Z,4.90
2017-06-15T12:37:02.398Z,5.17
2017-06-15T12:39:30.400Z,5.40
2017-06-15T12:41:58.845Z,4.67
2017-06-15T12:44:26.487Z,4.43
2017-06-15T12:46:54.468Z,4.23
2017-06-15T12:49:22.120Z,4.73
2017-06-15T12:51:49.762Z,4.97
2017-06-15T12:54:18.568Z,5.00
2017-06-15T12:56:46.232Z,5.10
2017-06-15T12:59:13.895Z,4.70
2017-06-15T13:01:41.557Z,5.07
2017-06-15T13:04:09.199Z,5.00
2017-06-15T13:06:37.647Z,4.57
2017-06-15T13:09:05.304Z,4.93
2017-06-15T13:11:32.954Z,4.70
2017-06-15T13:14:00.640Z,5.20
2017-06-15T13:16:28.648Z,5.00
2017-06-15T13:18:56.319Z,4.87
2017-06-15T13:21:23.983Z,4.80
2017-06-15T13:23:51.665Z,4.43
2017-06-15T13:26:19.424Z,5.60
2017-06-15T13:28:47.095Z,5.50
2017-06-15T13:31:14.762Z,4.93
2017-06-15T13:33:42.449Z,4.90
2017-06-15T13:36:10.893Z,4.80
2017-06-15T13:38:38.654Z,5.33
2017-06-15T13:41:06.319Z,4.97
2017-06-15T13:43:34.295Z,5.43
2017-06-15T13:46:01.943Z,5.10
2017-06-15T13:48:29.617Z,5.90
2017-06-15T13:50:57.302Z,4.80
2017-06-15T13:53:24.978Z,4.97
2017-06-15T13:55:52.642Z,4.83
2017-06-15T13:58:20.284Z,4.80
2017-06-15T14:00:48.306Z,4.53
2017-06-15T14:03:16.075Z,5.20
2017-06-15T14:05:43.752Z,4.73
2017-06-15T14:08:11.890Z,4.33
2017-06-15T14:10:40.298Z,5.37
2017-06-15T14:13:08.061Z,5.47
2017-06-15T14:15:36.118Z,5.30
2017-06-15T14:18:03.763Z,4.93
2017-06-15T14:20:32.170Z,4.70
2017-06-15T14:23:00.220Z,5.17
2017-06-15T14:25:28.643Z,4.70
2017-06-15T14:27:56.324Z,4.60
2017-06-15T14:30:24.425Z,4.87
2017-06-15T14:32:52.943Z,4.67
2017-06-15T14:35:20.593Z,5.10
2017-06-15T14:37:48.596Z,4.47
2017-06-15T14:40:16.252Z,5.10
2017-06-15T14:42:43.893Z,5.47
2017-06-15T14:45:11.877Z,5.77
2017-06-15T14:47:39.518Z,5.00
2017-06-15T14:50:07.196Z,5.10
2017-06-15T14:52:35.169Z,5.03
2017-06-15T14:55:02.920Z,5.37
2017-06-15T14:57:31.213Z,5.57
2017-06-15T14:59:59.246Z,5.30
2017-06-15T15:02:27.679Z,4.53
2017-06-15T15:04:55.329Z,4.93
2017-06-15T15:07:22.998Z,4.60
2017-06-15T15:09:50.715Z,4.60
2017-06-15T15:12:18.417Z,5.37
2017-06-15T15:14:46.173Z,5.50
2017-06-15T15:17:13.881Z,4.97
2017-06-15T15:19:41.552Z,5.40
2017-06-15T15:22:10.018Z,5.43
2017-06-15T15:24:37.692Z,4.77
2017-06-15T15:27:06.515Z,5.70
2017-06-15T15:29:34.190Z,4.93
2017-06-15T15:32:01.839Z,5.73
2017-06-15T15:34:31.474Z,5.37
2017-06-15T15:36:59.197Z,5.30
2017-06-15T15:39:27.008Z,5.07
2017-06-15T15:41:56.043Z,5.87
2017-06-15T15:44:25.087Z,4.90
2017-06-15T15:46:52.746Z,5.43
2017-06-15T15:49:20.390Z,5.30
2017-06-15T15:51:48.077Z,4.93
2017-06-15T15:54:16.281Z,5.20
2017-06-15T15:56:44.005Z,5.37
2017-06-15T15:59:11.689Z,5.00
2017-06-15T16:01:39.374Z,4.60
2017-06-15T16:04:07.049Z,6.63
2017-06-15T16:06:35.855Z,5.30
2017-06-15T16:09:03.592Z,5.97
2017-06-15T16:11:32.013Z,6.37
2017-06-15T16:13:59.696Z,5.90
2017-06-15T16:16:27.357Z,6.07
2017-06-15T16:18:55.517Z,5.80
2017-06-15T16:21:23.181Z,5.40
2017-06-15T16:23:50.854Z,5.20
2017-06-15T16:26:18.510Z,6.47
2017-06-15T16:28:46.151Z,6.20
2017-06-15T16:31:13.890Z,5.80
2017-06-15T16:33:44.112Z,5.80
2017-06-15T16:36:12.738Z,5.67
2017-06-15T16:38:40.393Z,5.07
2017-06-15T16:41:08.073Z,5.43
2017-06-15T16:43:35.751Z,5.50
2017-06-15T16:46:03.775Z,6.30
2017-06-15T16:48:31.423Z,5.60
2017-06-15T16:50:59.879Z,5.40
2017-06-15T16:53:27.569Z,5.23
2017-06-15T16:55:55.204Z,5.50
2017-06-15T16:58:23.658Z,5.70
2017-06-15T17:00:51.301Z,6.10
2017-06-15T17:03:18.975Z,6.00
2017-06-15T17:05:46.829Z,6.10
2017-06-15T17:08:14.877Z,6.03
2017-06-15T17:10:42.557Z,6.20
2017-06-15T17:13:10.233Z,7.13
2017-06-15T17:15:37.908Z,5.93
2017-06-15T17:18:05.561Z,6.10
2017-06-15T17:20:33.222Z,5.33
2017-06-15T17:23:00.864Z,5.87
2017-06-15T17:25:28.543Z,6.40
2017-06-15T17:27:56.195Z,6.53
2017-06-15T17:30:23.887Z,6.83
2017-06-15T17:32:51.556Z,6.40
2017-06-15T17:35:19.550Z,5.90
2017-06-15T17:37:48.002Z,6.17
2017-06-15T17:40:16.453Z,6.90
2017-06-15T17:42:44.225Z,6.70
2017-06-15T17:45:11.965Z,7.33
2017-06-15T17:47:39.637Z,6.70
2017-06-15T17:50:07.281Z,6.70
2017-06-15T17:52:34.953Z,7.33
2017-06-15T17:55:02.672Z,6.07
2017-06-15T17:57:30.449Z,6.40
2017-06-15T17:59:58.879Z,6.00
2017-06-15T18:02:26.868Z,6.30
2017-06-15T18:04:54.521Z,6.73
2017-06-15T18:07:22.162Z,6.00
2017-06-15T18:09:50.009Z,6.60
2017-06-15T18:12:17.698Z,7.47
2017-06-15T18:14:45.738Z,7.00
2017-06-15T18:17:13.410Z,6.60
2017-06-15T18:19:41.073Z,7.50
2017-06-15T18:22:09.068Z,6.50
2017-06-15T18:24:36.836Z,6.63
2017-06-15T18:27:04.494Z,7.23
2017-06-15T18:29:32.539Z,6.40
2017-06-15T18:32:00.188Z,7.40
2017-06-15T18:34:27.954Z,7.03
2017-06-15T18:36:56.059Z,7.13
2017-06-15T18:39:23.716Z,6.43
2017-06-15T18:41:51.398Z,7.07
2017-06-15T18:44:19.683Z,6.90
2017-06-15T18:46:47.333Z,6.60
2017-06-15T18:49:15.370Z,7.10
2017-06-15T18:51:43.905Z,7.53
2017-06-15T18:54:11.570Z,6.60
2017-06-15T18:56:39.316Z,7.00
2017-06-15T18:59:06.973Z,7.73
2017-06-15T19:01:34.645Z,7.33
2017-06-15T19:04:02.308Z,6.90
2017-06-15T19:06:30.041Z,6.80
2017-06-15T19:08:57.705Z,6.70
2017-06-15T19:11:25.393Z,7.70
2017-06-15T19:13:53.137Z,7.53
2017-06-15T19:16:20.795Z,7.30
2017-06-15T19:18:48.842Z,7.03
2017-06-15T19:21:16.479Z,7.10
2017-06-15T19:23:44.907Z,6.70
2017-06-15T19:26:12.584Z,7.20
2017-06-15T19:28:41.038Z,6.57
2017-06-15T19:31:09.019Z,6.73
2017-06-15T19:33:36.687Z,6.37
2017-06-15T19:36:04.356Z,6.37
2017-06-15T19:38:32.375Z,6.37
2017-06-15T19:41:00.815Z,6.47
2017-06-15T19:43:28.573Z,7.00
2017-06-15T19:45:56.618Z,6.40
2017-06-15T19:48:24.565Z,7.40
2017-06-15T19:50:52.980Z,6.53
2017-06-15T19:53:21.013Z,6.90
2017-06-15T19:55:49.533Z,6.43
2017-06-15T19:58:17.211Z,7.10
2017-06-15T20:00:45.263Z,8.07
2017-06-15T20:03:13.085Z,6.93
2017-06-15T20:05:41.525Z,7.20
2017-06-15T20:08:09.542Z,7.20
2017-06-15T20:10:37.980Z,7.47
2017-06-15T20:13:05.639Z,6.70
2017-06-15T20:15:33.661Z,8.07
2017-06-15T20:18:01.324Z,7.40
2017-06-15T20:20:29.027Z,8.70
2017-06-15T20:22:57.044Z,8.00
2017-06-15T20:25:30.971Z,8.50
2017-06-15T20:28:02.011Z,8.70
2017-06-15T20:30:29.690Z,8.30
2017-06-15T20:32:57.370Z,9.10
2017-06-15T20:35:25.398Z,8.63
2017-06-15T20:37:53.070Z,7.70
2017-06-15T20:40:20.743Z,8.00
2017-06-15T20:42:48.836Z,8.57
2017-06-15T20:45:16.482Z,8.20
2017-06-15T20:47:44.133Z,7.20
2017-06-15T20:50:12.125Z,7.77
2017-06-15T20:52:39.788Z,8.20
2017-06-15T20:55:07.561Z,7.63
2017-06-15T20:57:35.382Z,8.20
2017-06-15T21:00:03.060Z,8.20
2017-06-15T21:02:30.747Z,8.70
2017-06-15T21:04:58.400Z,8.07
2017-06-15T21:07:26.091Z,7.60
2017-06-15T21:09:53.750Z,8.80
2017-06-15T21:12:21.733Z,8.33
2017-06-15T21:14:49.390Z,7.93
2017-06-15T21:17:17.041Z,7.73
2017-06-15T21:19:44.722Z,7.93
2017-06-15T21:22:12.546Z,9.73
2017-06-15T21:24:40.210Z,8.77
2017-06-15T21:27:07.876Z,8.97
2017-06-15T21:29:35.909Z,9.67
